Time;durP1;ratioP1;P1;durP2;ratioP2;P2;SDS_P1;SDS_P2;PMS_P1;PMS_P2;Temp;Humidity;BMP_temperature;BMP_pressure;BME280_temperature;BME280_humidity;BME280_pressure;Samples;Min_cycle;Max_cycle;Signal;HPM_P1;HPM_P2
2022/08/13 00:02:09;;;;;;;22.77;13.30;;;;;;;-143.84;70.44;45005.28;5155035;27;20911;-77
2022/08/13 00:04:36;;;;;;;18.67;13.60;;;;;;;-143.84;70.74;45020.50;5154376;27;20440;-77
2022/08/13 00:07:07;;;;;;;14.93;13.33;;;;;;;-143.84;70.71;45047.16;5154554;27;20485;-77
2022/08/13 00:09:38;;;;;;;16.90;13.47;;;;;;;-143.84;71.04;45014.78;5154035;27;20434;-77
2022/08/13 00:14:52;;;;;;;20.43;13.97;;;;;;;-143.84;71.22;45026.22;5155645;27;20509;-78
2022/08/13 00:17:20;;;;;;;16.50;13.50;;;;;;;-143.84;71.38;45037.66;5155744;27;21123;-78
2022/08/13 00:19:49;;;;;;;20.77;14.30;;;;;;;-143.84;71.25;45039.53;5155879;27;20587;-78
2022/08/13 00:22:19;;;;;;;14.83;12.80;;;;;;;-143.84;71.53;45075.72;5155756;27;20501;-78
2022/08/13 00:24:47;;;;;;;16.93;13.90;;;;;;;-143.84;71.49;45037.66;5153999;27;20829;-77
2022/08/13 00:27:14;;;;;;;16.57;12.87;;;;;;;-143.84;71.45;45001.47;5153720;27;20924;-77
2022/08/13 00:29:42;;;;;;;23.60;13.90;;;;;;;-143.84;71.87;45020.50;5153957;27;20561;-77
2022/08/13 00:32:09;;;;;;;17.80;13.67;;;;;;;-143.84;72.16;45028.13;5153698;27;20434;-77
2022/08/13 00:34:36;;;;;;;17.23;15.00;;;;;;;-143.84;72.36;45031.94;5154209;27;20978;-77
2022/08/13 00:37:09;;;;;;;21.97;14.23;;;;;;;-143.84;72.30;45003.38;5153149;27;20459;-72
2022/08/13 00:39:38;;;;;;;14.97;12.43;;;;;;;-143.84;72.25;45014.78;5152794;27;20441;-71
2022/08/13 00:42:05;;;;;;;32.53;13.10;;;;;;;-143.84;72.57;45010.97;5153073;27;20452;-71
2022/08/13 00:44:32;;;;;;;16.90;14.13;;;;;;;-143.84;72.44;45007.19;5152547;27;20457;-71
2022/08/13 00:49:47;;;;;;;16.37;12.20;;;;;;;-143.84;73.04;45031.94;5152904;27;21066;-71
2022/08/13 00:52:14;;;;;;;16.90;14.27;;;;;;;-143.84;72.93;45026.22;5152519;27;20449;-71
2022/08/13 00:54:43;;;;;;;15.30;13.40;;;;;;;-143.84;73.33;45045.25;5152542;27;20441;-72
2022/08/13 00:57:12;;;;;;;16.60;13.23;;;;;;;-143.84;73.44;45049.06;5152462;27;20506;-72
2022/08/13 00:59:39;;;;;;;19.57;14.30;;;;;;;-143.84;73.39;45014.78;5152477;27;20802;-72
2022/08/13 01:02:06;;;;;;;17.20;13.87;;;;;;;-143.84;73.66;45010.97;5152520;27;20486;-72
2022/08/13 01:04:34;;;;;;;15.07;12.00;;;;;;;-143.84;73.71;45010.97;5152607;27;20966;-72
2022/08/13 01:07:01;;;;;;;16.43;13.90;;;;;;;-143.84;74.03;45039.53;5152338;27;20429;-72
2022/08/13 01:09:30;;;;;;;18.50;14.57;;;;;;;-143.84;73.93;45031.94;5152538;27;20502;-72
2022/08/13 01:12:02;;;;;;;19.10;14.20;;;;;;;-143.84;74.04;45047.16;5152321;27;20444;-72
2022/08/13 01:14:32;;;;;;;19.93;13.60;;;;;;;-143.84;74.23;45022.41;5152055;27;20477;-72
2022/08/13 01:17:03;;;;;;;15.73;13.90;;;;;;;-143.84;74.12;45030.03;5152412;27;20443;-72
2022/08/13 01:19:34;;;;;;;15.27;13.67;;;;;;;-143.84;73.90;45009.09;5151979;27;20835;-72
2022/08/13 01:22:05;;;;;;;17.57;13.90;;;;;;;-143.84;74.01;45030.03;5152277;27;20512;-71
2022/08/13 01:24:33;;;;;;;18.23;14.03;;;;;;;-143.84;73.90;45035.75;5152032;27;20539;-72
2022/08/13 01:27:00;;;;;;;14.43;13.03;;;;;;;-143.84;73.95;45016.69;5152065;27;20437;-72
2022/08/13 01:29:27;;;;;;;18.97;14.50;;;;;;;-143.84;74.26;45018.59;5152117;27;20434;-72
2022/08/13 01:31:55;;;;;;;23.13;13.97;;;;;;;-143.84;74.11;45031.94;5151557;27;20437;-72
2022/08/13 01:34:23;;;;;;;16.83;14.30;;;;;;;-143.84;73.93;45047.16;5151504;27;20534;-72
2022/08/13 01:36:53;;;;;;;21.07;14.23;;;;;;;-143.84;74.27;45039.53;5151536;27;20437;-71
2022/08/13 01:39:21;;;;;;;16.43;14.60;;;;;;;-143.84;74.22;45062.41;5151732;27;20433;-72
2022/08/13 01:41:49;;;;;;;20.73;14.67;;;;;;;-143.84;74.55;45039.53;5151667;27;20445;-72
2022/08/13 01:44:18;;;;;;;31.73;14.40;;;;;;;-143.84;74.69;45035.75;5151969;27;20441;-71
2022/08/13 01:52:16;;;;;;;19.97;13.87;;;;;;;-143.84;74.99;45037.66;5151619;27;20428;-71
2022/08/13 01:54:44;;;;;;;22.40;14.63;;;;;;;-143.84;75.17;45033.84;5150937;27;20592;-71
2022/08/13 01:57:12;;;;;;;15.67;14.17;;;;;;;-143.84;75.38;45030.03;5151631;27;20441;-71
2022/08/13 01:59:41;;;;;;;16.13;14.43;;;;;;;-143.84;75.64;45041.44;5151425;27;20494;-71
2022/08/13 02:02:10;;;;;;;18.10;14.90;;;;;;;-143.84;75.80;45037.66;5151258;27;20440;-71
2022/08/13 02:04:37;;;;;;;17.97;12.93;;;;;;;-143.84;75.81;45028.13;5151112;27;20909;-71
2022/08/13 02:07:06;;;;;;;17.97;14.80;;;;;;;-143.84;75.91;45022.41;5150912;27;20445;-71
2022/08/13 02:09:33;;;;;;;16.00;14.40;;;;;;;-143.84;75.71;45028.13;5151358;27;20457;-71
2022/08/13 02:12:02;;;;;;;17.83;15.53;;;;;;;-143.84;76.06;45047.16;5151140;27;20441;-71
2022/08/13 02:14:29;;;;;;;17.60;14.37;;;;;;;-143.84;76.73;45022.41;5151052;27;20481;-71
2022/08/13 02:16:56;;;;;;;22.97;15.10;;;;;;;-143.84;76.72;45033.84;5151070;27;20779;-71
2022/08/13 02:19:24;;;;;;;17.33;15.53;;;;;;;-143.84;76.94;45024.31;5150691;27;20460;-71
2022/08/13 02:21:51;;;;;;;18.27;14.20;;;;;;;-143.84;77.18;45033.84;5150795;27;20433;-71
2022/08/13 02:24:18;;;;;;;15.67;14.07;;;;;;;-143.84;77.11;45016.69;5150774;27;20875;-71
2022/08/13 02:26:46;;;;;;;21.77;14.40;;;;;;;-143.84;77.36;45026.22;5150697;27;20517;-71
2022/08/13 02:29:15;;;;;;;15.53;13.80;;;;;;;-143.84;77.62;45047.16;5150898;27;20458;-71
2022/08/13 02:31:43;;;;;;;19.30;13.80;;;;;;;-143.84;77.80;45049.06;5150602;27;20445;-71
2022/08/13 02:34:12;;;;;;;19.60;16.37;;;;;;;-143.84;78.07;45030.03;5150806;27;20477;-71
2022/08/13 02:36:40;;;;;;;21.27;16.47;;;;;;;-143.84;77.82;45031.94;5146233;27;20454;-71
2022/08/13 02:39:09;;;;;;;17.07;14.67;;;;;;;-143.84;77.88;45060.50;5113003;27;20439;-71
2022/08/13 02:41:39;;;;;;;19.57;14.97;;;;;;;-143.84;78.10;45039.53;5109593;28;20435;-71
2022/08/13 02:44:08;;;;;;;16.27;14.20;;;;;;;-143.84;78.25;45009.09;5109528;28;20455;-71
2022/08/13 02:46:37;;;;;;;18.10;14.73;;;;;;;-143.84;78.54;45052.88;5109360;28;20442;-71
2022/08/13 02:49:04;;;;;;;16.93;15.23;;;;;;;-143.84;78.46;45033.84;5109705;28;20453;-71
2022/08/13 02:51:32;;;;;;;25.20;15.70;;;;;;;-143.84;78.79;45041.44;5109456;28;20492;-71
2022/08/13 02:54:00;;;;;;;18.60;15.53;;;;;;;-143.84;78.85;45041.44;5109291;28;20520;-71
2022/08/13 02:56:28;;;;;;;15.67;14.00;;;;;;;-143.84;78.90;45054.78;5109252;28;20443;-71
2022/08/13 02:58:56;;;;;;;19.00;15.67;;;;;;;-143.84;79.28;45037.66;5118428;28;20801;-71
2022/08/13 03:01:24;;;;;;;17.77;15.60;;;;;;;-143.84;79.45;45041.44;5129833;28;20466;-71
2022/08/13 03:03:54;;;;;;;18.47;16.47;;;;;;;-143.84;79.42;45039.53;5129742;28;20444;-71
2022/08/13 03:06:21;;;;;;;22.40;16.70;;;;;;;-143.84;79.61;45028.13;5129717;27;20565;-72
2022/08/13 03:08:51;;;;;;;18.37;15.53;;;;;;;-143.84;79.74;45039.53;5118350;27;20491;-71
2022/08/13 03:11:19;;;;;;;16.23;14.30;;;;;;;-143.84;80.28;45049.06;5113276;28;20855;-71
2022/08/13 03:13:53;;;;;;;19.90;15.63;;;;;;;-143.84;80.68;45041.44;5123602;27;20474;-71
2022/08/13 03:16:24;;;;;;;19.20;14.83;;;;;;;-143.84;80.89;45049.06;5133620;27;20512;-71
2022/08/13 03:18:54;;;;;;;23.37;16.70;;;;;;;-143.84;80.90;45035.75;5133735;27;20446;-71
2022/08/13 03:21:23;;;;;;;23.47;16.10;;;;;;;-143.84;81.10;45045.25;5133618;27;20461;-71
2022/08/13 03:23:51;;;;;;;18.47;16.40;;;;;;;-143.84;81.28;45056.69;5133165;27;20449;-72
2022/08/13 03:26:19;;;;;;;24.03;16.00;;;;;;;-143.84;81.30;45066.22;5133433;27;20446;-71
2022/08/13 03:28:50;;;;;;;23.80;16.20;;;;;;;-143.84;81.51;45026.22;5133654;27;20532;-71
2022/08/13 03:31:18;;;;;;;18.40;16.30;;;;;;;-143.84;81.78;45064.31;5133257;27;20815;-71
2022/08/13 03:33:46;;;;;;;27.80;16.47;;;;;;;-143.84;81.86;45047.16;5133267;27;20531;-71
2022/08/13 03:36:14;;;;;;;23.40;17.70;;;;;;;-143.84;81.90;45020.50;5133350;27;20487;-71
2022/08/13 03:38:42;;;;;;;17.47;15.67;;;;;;;-143.84;81.97;45050.97;5133016;27;21251;-71
2022/08/13 03:41:12;;;;;;;19.60;17.00;;;;;;;-143.84;81.84;45049.06;5133138;27;20434;-72
2022/08/13 03:43:42;;;;;;;20.83;15.17;;;;;;;-143.84;81.90;45047.16;5133165;27;20452;-72
2022/08/13 03:46:11;;;;;;;20.60;16.63;;;;;;;-143.84;81.83;45041.44;5132965;27;20453;-71
2022/08/13 03:48:39;;;;;;;19.10;15.83;;;;;;;-143.84;82.02;45028.13;5133077;27;20927;-70
2022/08/13 03:51:06;;;;;;;17.20;15.40;;;;;;;-143.84;81.71;45066.22;5132992;27;20441;-71
2022/08/13 03:53:36;;;;;;;20.10;15.73;;;;;;;-143.84;80.65;45062.41;5132816;27;20473;-71
2022/08/13 03:56:04;;;;;;;20.27;15.90;;;;;;;-143.84;80.10;45026.22;5132817;27;20450;-71
2022/08/13 03:58:31;;;;;;;16.57;14.80;;;;;;;-143.84;78.57;45039.53;5133182;27;20467;-71
2022/08/13 04:01:01;;;;;;;18.13;16.10;;;;;;;-143.84;76.18;45031.94;5132907;27;20530;-71
2022/08/13 04:03:30;;;;;;;20.80;13.83;;;;;;;-143.84;74.49;45035.75;5132509;27;20490;-71
2022/08/13 04:06:00;;;;;;;17.30;14.47;;;;;;;-143.84;72.72;45024.31;5132203;27;20444;-71
2022/08/13 04:08:30;;;;;;;16.80;15.00;;;;;;;-143.84;71.06;45014.78;5132190;27;20465;-71
2022/08/13 04:10:59;;;;;;;28.67;15.60;;;;;;;-143.84;70.07;45062.41;5132407;27;20429;-71
2022/08/13 04:13:28;;;;;;;20.47;15.07;;;;;;;-143.84;68.55;45012.88;5131971;27;20518;-71
2022/08/13 04:15:55;;;;;;;17.23;14.33;;;;;;;-143.84;67.92;45010.97;5131851;27;20438;-71
2022/08/13 04:18:22;;;;;;;16.30;14.60;;;;;;;-143.84;66.30;44997.66;5132016;27;20814;-71
2022/08/13 04:20:52;;;;;;;16.40;14.53;;;;;;;-143.84;65.35;45005.28;5132818;27;20446;-71
2022/08/13 04:23:20;;;;;;;16.33;14.17;;;;;;;-143.84;64.83;45010.97;5132340;27;20450;-71
2022/08/13 04:25:49;;;;;;;15.23;13.63;;;;;;;-143.84;63.97;45007.19;5132365;27;20469;-71
2022/08/13 04:28:21;;;;;;;17.77;14.13;;;;;;;-143.84;63.98;44993.84;5132449;27;20918;-71
2022/08/13 04:30:48;;;;;;;18.93;15.13;;;;;;;-143.84;63.73;44995.75;5132146;27;20446;-71
2022/08/13 04:33:17;;;;;;;23.73;14.80;;;;;;;-143.84;63.79;44982.41;5132338;27;20433;-71
2022/08/13 04:35:46;;;;;;;15.03;13.53;;;;;;;-143.84;64.07;45014.78;5132023;27;20474;-71
2022/08/13 04:38:13;;;;;;;16.60;14.70;;;;;;;-143.84;64.25;45005.28;5131490;27;20458;-71
2022/08/13 04:40:42;;;;;;;21.20;14.40;;;;;;;-143.84;64.04;44995.75;5132128;27;20487;-71
2022/08/13 04:43:11;;;;;;;21.80;13.33;;;;;;;-143.84;63.37;44974.81;5132109;27;20861;-71
2022/08/13 04:45:40;;;;;;;15.57;13.97;;;;;;;-143.84;63.54;45014.78;5131840;27;20533;-71
2022/08/13 04:48:09;;;;;;;16.60;13.47;;;;;;;-143.84;63.10;45001.47;5131999;27;20445;-72
2022/08/13 04:50:38;;;;;;;15.30;13.70;;;;;;;-143.84;62.80;45028.13;5131981;27;20437;-71
2022/08/13 04:53:07;;;;;;;15.20;13.60;;;;;;;-143.84;62.14;44997.66;5131962;27;20943;-72
2022/08/13 04:55:36;;;;;;;15.97;13.07;;;;;;;-143.84;61.64;44991.94;5131839;27;20485;-72
2022/08/13 04:58:03;;;;;;;13.93;12.60;;;;;;;-143.84;61.02;44984.31;5131933;27;20449;-72
2022/08/13 05:00:33;;;;;;;16.17;13.50;;;;;;;-143.84;60.88;44993.84;5131981;27;20426;-72
2022/08/13 05:03:11;;;;;;;15.13;13.43;;;;;;;-143.84;60.53;44974.81;5131753;27;20436;-72
2022/08/13 05:05:38;;;;;;;20.10;13.37;;;;;;;-143.84;59.98;44980.53;5131834;27;20444;-72
2022/08/13 05:08:07;;;;;;;16.83;13.20;;;;;;;-143.84;59.68;44990.03;5131792;27;20923;-72
2022/08/13 05:10:38;;;;;;;14.90;12.63;;;;;;;-143.84;58.87;44986.22;5131735;27;20474;-72
2022/08/13 05:13:19;;;;;;;17.80;11.80;;;;;;;-143.84;58.92;44963.38;5131395;27;20434;-72
2022/08/13 05:15:46;;;;;;;19.13;12.00;;;;;;;-143.84;58.33;44974.81;5131594;27;20466;-72
2022/08/13 05:18:16;;;;;;;18.03;13.77;;;;;;;-143.84;57.96;44969.09;5131226;27;20437;-72
2022/08/13 05:20:43;;;;;;;13.50;12.10;;;;;;;-143.84;58.06;44963.38;5113066;27;20503;-72
2022/08/13 05:23:12;;;;;;;16.63;13.70;;;;;;;-143.84;57.76;45005.28;5131404;27;20872;-72
2022/08/13 05:25:39;;;;;;;13.37;12.00;;;;;;;-143.84;57.94;44972.91;5131174;27;21056;-72
2022/08/13 05:28:08;;;;;;;12.70;11.50;;;;;;;-143.84;57.41;44963.38;5131173;27;20442;-72
2022/08/13 05:30:38;;;;;;;16.37;12.67;;;;;;;-143.84;56.89;44988.13;5130350;27;20543;-72
2022/08/13 05:33:13;;;;;;;14.83;12.70;;;;;;;-143.84;56.28;44980.53;5131096;27;20794;-73
2022/08/13 05:35:42;;;;;;;15.30;12.80;;;;;;;-143.84;55.93;44955.75;5130943;27;20485;-73
2022/08/13 05:38:10;;;;;;;18.33;12.63;;;;;;;-143.84;55.69;44957.66;5130904;27;20482;-72
2022/08/13 05:40:38;;;;;;;16.90;12.37;;;;;;;-143.84;54.86;44934.81;5130876;27;20446;-72
2022/08/13 05:43:11;;;;;;;19.50;12.70;;;;;;;-143.84;54.24;44942.44;5130629;27;20438;-72
2022/08/13 05:45:39;;;;;;;14.53;12.10;;;;;;;-143.84;54.33;44921.50;5131067;27;20486;-72
2022/08/13 05:48:06;;;;;;;14.17;12.17;;;;;;;-143.84;54.29;44959.56;5130946;27;20429;-72
2022/08/13 05:50:33;;;;;;;18.07;12.70;;;;;;;-143.84;53.51;44965.28;5130984;27;20947;-73
2022/08/13 05:53:08;;;;;;;15.90;11.63;;;;;;;-143.84;53.55;44963.38;5130519;27;20444;-72
2022/08/13 05:55:35;;;;;;;15.33;11.67;;;;;;;-143.84;52.84;44950.06;5130406;27;20485;-72
2022/08/13 05:58:03;;;;;;;13.97;12.30;;;;;;;-143.84;52.61;44921.50;5130196;27;20525;-72
2022/08/13 06:03:25;;;;;;;12.40;11.10;;;;;;;-143.84;51.96;44946.25;5130679;27;20930;-78
2022/08/13 06:05:53;;;;;;;12.47;11.37;;;;;;;-143.84;50.80;44919.59;5131572;27;20540;-78
2022/08/13 06:08:24;;;;;;;19.07;12.20;;;;;;;-143.84;49.93;44904.34;5131314;27;20777;-78
2022/08/13 06:10:52;;;;;;;14.00;12.27;;;;;;;-143.84;49.60;44925.31;5131315;27;20448;-78
2022/08/13 06:13:19;;;;;;;18.63;12.30;;;;;;;-143.84;48.70;44910.06;5131556;27;20651;-78
2022/08/13 06:15:57;;;;;;;13.77;12.37;;;;;;;-143.84;48.95;44948.16;5131112;27;20486;-78
2022/08/13 06:18:26;;;;;;;15.10;12.50;;;;;;;-143.84;48.70;44900.53;5130932;27;20462;-78
2022/08/13 06:20:55;;;;;;;13.00;11.70;;;;;;;-143.84;48.48;44923.41;5130931;27;20441;-78
2022/08/13 06:23:26;;;;;;;18.93;11.20;;;;;;;-143.84;47.74;44889.13;5131336;27;20418;-78
2022/08/13 06:25:54;;;;;;;13.37;11.13;;;;;;;-143.84;47.52;44921.50;5130767;27;20976;-78
2022/08/13 06:28:22;;;;;;;16.10;11.80;;;;;;;-143.84;46.72;44898.66;5130734;27;20434;-77
2022/08/13 06:30:51;;;;;;;15.60;12.00;;;;;;;-143.84;46.16;44896.75;5131222;27;20429;-78
2022/08/13 06:33:22;;;;;;;13.30;11.90;;;;;;;-143.84;45.56;44894.84;5131649;27;20462;-78
2022/08/13 06:35:55;;;;;;;13.10;10.43;;;;;;;-143.84;45.82;44883.41;5133348;27;20484;-78
2022/08/13 06:38:28;;;;;;;16.20;10.87;;;;;;;-143.84;44.53;44898.66;5133156;27;20494;-78
2022/08/13 06:40:59;;;;;;;19.03;9.80;;;;;;;-143.84;44.52;44906.25;5131464;27;20434;-78
2022/08/13 06:43:28;;;;;;;14.07;10.63;;;;;;;-143.84;44.45;44879.59;5131052;27;20517;-78
2022/08/13 06:45:56;;;;;;;13.30;10.33;;;;;;;-143.84;44.62;44892.94;5130877;27;20811;-78
2022/08/13 06:48:23;;;;;;;10.60;9.47;;;;;;;-143.84;43.93;44898.66;5132923;27;20437;-79
2022/08/13 06:50:51;;;;;;;10.60;9.60;;;;;;;-143.84;43.70;44889.13;5132449;28;20438;-79
2022/08/13 06:53:19;;;;;;;14.47;10.23;;;;;;;-143.84;43.32;44870.09;5114222;27;20426;-79
2022/08/13 06:55:50;;;;;;;14.50;10.10;;;;;;;-143.84;42.89;44875.78;5123749;27;20490;-78
2022/08/13 06:58:28;;;;;;;12.33;10.97;;;;;;;-143.84;42.78;44873.88;5125945;28;20439;-78
2022/08/13 07:00:56;;;;;;;19.53;9.83;;;;;;;-143.84;42.40;44847.22;5112499;28;20434;-78
2022/08/13 07:03:28;;;;;;;12.53;10.23;;;;;;;-143.84;40.42;44854.84;5112123;28;20434;-79
2022/08/13 07:05:57;;;;;;;17.53;10.00;;;;;;;-143.84;39.88;44856.75;5111593;28;20431;-77
2022/08/13 07:08:25;;;;;;;18.43;10.17;;;;;;;-143.84;40.80;44849.13;5110782;28;20522;-78
2022/08/13 07:13:39;;;;;;;15.97;10.60;;;;;;;-143.84;40.51;44860.56;5109532;28;20451;-78
2022/08/13 07:16:08;;;;;;;17.70;10.50;;;;;;;-143.84;39.58;44845.31;5110050;28;20555;-78
2022/08/13 07:18:35;;;;;;;19.10;11.07;;;;;;;-143.84;39.24;44835.81;5110356;28;20439;-78
2022/08/13 07:21:05;;;;;;;11.13;9.50;;;;;;;-143.84;39.17;44828.19;5110329;28;20435;-79
2022/08/13 07:23:32;;;;;;;14.53;10.03;;;;;;;-143.84;38.49;44801.53;5110618;28;20439;-78
2022/08/13 07:26:02;;;;;;;13.53;10.57;;;;;;;-143.84;39.07;44812.97;5109404;28;20435;-79
2022/08/13 07:28:31;;;;;;;20.90;11.57;;;;;;;-143.84;38.33;44784.41;5112655;28;20438;-78
2022/08/13 07:30:59;;;;;;;15.23;10.53;;;;;;;-143.84;37.68;44795.81;5110885;28;21319;-79
2022/08/13 07:33:27;;;;;;;23.67;11.50;;;;;;;-143.84;37.78;44797.72;5112437;28;20423;-77
2022/08/13 07:35:55;;;;;;;19.47;10.87;;;;;;;-143.84;37.38;44820.56;5114740;28;20467;-77
2022/08/13 07:38:25;;;;;;;17.50;11.13;;;;;;;-143.84;37.44;44801.53;5110536;28;20431;-78
2022/08/13 07:40:55;;;;;;;18.23;10.60;;;;;;;-143.84;38.28;44801.53;5109276;28;20434;-77
2022/08/13 07:43:24;;;;;;;18.57;10.17;;;;;;;-143.84;36.95;44852.94;5109594;28;20786;-77
2022/08/13 07:46:07;;;;;;;15.03;11.17;;;;;;;-143.84;37.91;44845.31;5113400;28;20507;-77
2022/08/13 07:48:37;;;;;;;18.47;10.87;;;;;;;-143.84;38.61;44839.63;5116926;28;20439;-77
2022/08/13 07:51:09;;;;;;;16.13;9.90;;;;;;;-143.84;37.93;44843.44;5118324;28;20435;-78
2022/08/13 07:53:39;;;;;;;13.50;9.50;;;;;;;-143.84;38.29;44851.03;5118428;28;20834;-78
2022/08/13 07:56:08;;;;;;;18.50;10.27;;;;;;;-143.84;38.77;44856.75;5118403;27;20612;-78
2022/08/13 07:58:37;;;;;;;15.23;10.63;;;;;;;-143.84;38.67;44860.56;5117826;28;20446;-78
2022/08/13 08:01:06;;;;;;;11.13;9.43;;;;;;;-143.84;39.22;44889.13;5116005;28;21340;-77
2022/08/13 08:03:38;;;;;;;16.80;12.20;;;;;;;-143.84;39.71;44839.63;5123417;28;20447;-79
2022/08/13 08:06:07;;;;;;;15.47;9.60;;;;;;;-143.84;39.61;44839.63;5115267;28;20427;-79
2022/08/13 08:08:34;;;;;;;22.90;10.17;;;;;;;-143.84;38.75;44839.63;5128328;27;20967;-79
2022/08/13 08:11:02;;;;;;;13.67;11.07;;;;;;;-143.84;38.12;44847.22;5137277;27;20430;-79
2022/08/13 08:13:32;;;;;;;15.13;10.03;;;;;;;-143.84;38.35;44835.81;5132998;27;20500;-79
2022/08/13 08:16:02;;;;;;;11.47;9.80;;;;;;;-143.84;40.19;44864.38;5147620;27;20547;-79
2022/08/13 08:18:29;;;;;;;20.10;10.80;;;;;;;-143.84;41.37;44862.47;5132034;27;20501;-80
2022/08/13 08:21:07;;;;;;;12.67;10.33;;;;;;;-143.84;40.94;44847.22;5132537;27;20431;-77
2022/08/13 08:23:36;;;;;;;17.47;11.43;;;;;;;-143.84;40.79;44854.84;5130564;27;20515;-76
2022/08/13 08:26:07;;;;;;;16.70;11.80;;;;;;;-143.84;40.94;44826.28;5139455;27;20484;-78
2022/08/13 08:28:35;;;;;;;12.07;10.87;;;;;;;-143.84;40.47;44833.91;5152667;27;20863;-77
2022/08/13 08:31:06;;;;;;;14.63;11.70;;;;;;;-143.84;41.32;44866.28;5145594;27;20472;-78
2022/08/13 08:33:34;;;;;;;17.03;11.90;;;;;;;-143.84;40.93;44858.66;5140342;27;20483;-78
2022/08/13 08:36:03;;;;;;;13.50;11.50;;;;;;;-143.84;42.10;44852.94;5120625;27;20467;-78
2022/08/13 08:44:02;;;;;;;13.00;10.73;;;;;;;-143.84;44.00;44891.03;5131024;27;20897;-77
2022/08/13 08:46:33;;;;;;;14.63;12.57;;;;;;;-143.84;46.01;44896.75;5117756;27;20458;-77
2022/08/13 08:49:02;;;;;;;17.47;11.87;;;;;;;-143.84;47.72;44908.16;5139026;27;20456;-77
2022/08/13 08:51:31;;;;;;;17.50;12.03;;;;;;;-143.84;48.46;44913.88;5135085;27;20470;-77
2022/08/13 08:54:00;;;;;;;15.43;12.23;;;;;;;-143.84;49.42;44877.69;5134267;27;20469;-78
2022/08/13 08:56:28;;;;;;;24.57;12.63;;;;;;;-143.84;50.77;44915.78;5141508;27;20894;-79
2022/08/13 08:58:57;;;;;;;47.20;14.67;;;;;;;-143.84;49.96;44862.47;5148217;27;20460;-77
2022/08/13 09:01:25;;;;;;;20.90;11.93;;;;;;;-143.84;49.12;44915.78;5133020;27;20456;-80
2022/08/13 09:03:57;;;;;;;16.43;12.53;;;;;;;-143.84;49.06;44889.13;5127598;27;20504;-80
2022/08/13 09:06:28;;;;;;;24.23;13.17;;;;;;;-143.84;49.37;44911.97;5127598;27;20701;-80
2022/08/13 09:08:56;;;;;;;24.43;13.00;;;;;;;-143.84;49.92;44921.50;5122195;27;20844;-80
2022/08/13 09:11:25;;;;;;;17.33;13.70;;;;;;;-143.84;50.30;44921.50;5129673;27;20443;-75
2022/08/13 09:13:53;;;;;;;18.20;11.90;;;;;;;-143.84;50.98;44904.34;5132639;27;20458;-74
2022/08/13 09:16:20;;;;;;;14.93;11.90;;;;;;;-143.84;52.10;44898.66;5126397;27;20475;-79
2022/08/13 09:18:49;;;;;;;15.30;12.33;;;;;;;-143.84;51.76;44910.06;5138266;27;20437;-81
2022/08/13 09:21:17;;;;;;;16.33;13.23;;;;;;;-143.84;53.13;44923.41;5137001;27;20449;-80
2022/08/13 09:23:47;;;;;;;14.00;12.30;;;;;;;-143.84;52.50;44892.94;5127645;27;21019;-81
2022/08/13 09:26:17;;;;;;;14.73;13.07;;;;;;;-143.84;52.10;44913.88;5129800;27;20974;-80
2022/08/13 09:28:45;;;;;;;22.13;13.47;;;;;;;-143.84;52.27;44944.34;5125665;27;20442;-80
2022/08/13 09:31:12;;;;;;;17.47;12.93;;;;;;;-143.84;51.79;44885.31;5130520;27;20448;-81
2022/08/13 09:33:40;;;;;;;19.03;12.20;;;;;;;-143.84;50.44;44908.16;5123023;27;20937;-80
2022/08/13 09:36:11;;;;;;;21.47;13.27;;;;;;;-143.84;48.78;44900.53;5128547;27;20486;-80
2022/08/13 09:38:41;;;;;;;20.07;12.37;;;;;;;-143.84;50.13;44906.25;5123353;27;20518;-81
2022/08/13 09:41:17;;;;;;;13.67;12.33;;;;;;;-143.84;47.98;44879.59;5120336;27;20454;-80
2022/08/13 09:43:45;;;;;;;16.23;11.10;;;;;;;-143.84;49.20;44883.41;5115218;27;20447;-81
2022/08/13 09:46:15;;;;;;;16.67;11.43;;;;;;;-143.84;48.95;44866.28;5125169;27;20446;-81
2022/08/13 09:48:42;;;;;;;18.67;12.67;;;;;;;-143.84;48.12;44866.28;5131503;27;20504;-81
2022/08/13 09:51:13;;;;;;;15.57;11.97;;;;;;;-143.84;47.26;44870.09;5118348;27;20551;-81
2022/08/13 09:53:43;;;;;;;23.30;13.43;;;;;;;-143.84;48.53;44875.78;5117055;27;20447;-80
2022/08/13 09:56:12;;;;;;;14.07;12.40;;;;;;;-143.84;48.99;44904.34;5123888;27;20478;-81
2022/08/13 09:58:39;;;;;;;21.73;12.00;;;;;;;-143.84;48.23;44877.69;5118329;27;20439;-80
2022/08/13 10:01:06;;;;;;;13.83;10.97;;;;;;;-143.84;46.78;44875.78;5125852;27;20495;-81
2022/08/13 10:03:38;;;;;;;28.40;12.10;;;;;;;-143.84;45.83;44887.22;5125210;27;20936;-81
2022/08/13 10:06:07;;;;;;;12.90;11.10;;;;;;;-143.84;46.49;44858.66;5112667;28;20519;-81
2022/08/13 10:08:35;;;;;;;19.77;10.63;;;;;;;-143.84;43.67;44873.88;5120773;27;20534;-81
2022/08/13 10:11:04;;;;;;;14.57;10.70;;;;;;;-143.84;43.02;44868.19;5132677;27;20480;-81
2022/08/13 10:13:32;;;;;;;19.30;10.60;;;;;;;-143.84;44.41;44873.88;5121969;27;20954;-81
2022/08/13 10:15:59;;;;;;;23.80;11.90;;;;;;;-143.84;44.86;44864.38;5125438;27;20471;-80
2022/08/13 10:18:27;;;;;;;13.97;12.00;;;;;;;-143.84;47.03;44877.69;5122130;27;20451;-81
2022/08/13 10:20:54;;;;;;;20.73;11.40;;;;;;;-143.84;44.84;44877.69;5122565;27;20935;-82
2022/08/13 10:23:21;;;;;;;13.70;10.70;;;;;;;-143.84;45.63;44887.22;5114496;27;20441;-81
2022/08/13 10:25:52;;;;;;;16.13;11.53;;;;;;;-143.84;47.46;44887.22;5117786;27;20520;-81
2022/08/13 10:28:23;;;;;;;15.80;12.70;;;;;;;-143.84;49.72;44900.53;5122743;27;20453;-80
2022/08/13 10:30:51;;;;;;;19.00;11.70;;;;;;;-143.84;49.85;44904.34;5118878;27;20948;-79
2022/08/13 10:33:20;;;;;;;25.03;13.00;;;;;;;-143.84;51.73;44904.34;5134849;27;20483;-80
2022/08/13 10:35:51;;;;;;;17.23;12.90;;;;;;;-143.84;51.95;44900.53;5122917;27;20477;-80
2022/08/13 10:38:20;;;;;;;13.43;12.03;;;;;;;-143.84;52.38;44892.94;5127397;27;20528;-79
2022/08/13 10:40:49;;;;;;;20.83;12.50;;;;;;;-143.84;51.87;44927.19;5124008;27;20445;-80
2022/08/13 10:43:16;;;;;;;13.60;11.60;;;;;;;-143.84;51.58;44946.25;5124221;27;20853;-80
2022/08/13 10:45:45;;;;;;;17.50;12.60;;;;;;;-143.84;52.53;44917.69;5125678;27;20853;-80
2022/08/13 10:48:13;;;;;;;18.00;13.07;;;;;;;-143.84;52.50;44942.44;5134121;27;20442;-80
2022/08/13 10:50:42;;;;;;;14.57;12.07;;;;;;;-143.84;53.48;44917.69;5123191;27;20442;-80
2022/08/13 10:53:54;;;;;;;19.17;13.83;;;;;;;-143.84;52.45;44931.00;5126633;27;20426;-80
2022/08/13 10:55:57;;;;;;;14.27;12.70;;;;;;;-143.84;52.42;44902.44;5118197;28;21607;-80
2022/08/13 10:58:24;;;;;;;15.90;12.53;;;;;;;-143.84;53.01;44931.00;5127501;27;20521;-80
2022/08/13 11:00:53;;;;;;;23.63;13.00;;;;;;;-143.84;49.80;44892.94;5131654;27;20452;-80
2022/08/13 11:03:20;;;;;;;22.23;12.83;;;;;;;-143.84;51.02;44927.19;5131370;27;20827;-81
2022/08/13 11:05:49;;;;;;;18.87;12.67;;;;;;;-143.84;49.35;44906.25;5126752;27;20492;-79
2022/08/13 11:08:16;;;;;;;23.20;12.70;;;;;;;-143.84;47.60;44900.53;5128627;27;20449;-79
2022/08/13 11:10:44;;;;;;;16.53;12.07;;;;;;;-143.84;47.82;44896.75;5137450;27;20457;-77
2022/08/13 11:13:12;;;;;;;22.70;12.60;;;;;;;-143.84;46.69;44894.84;5118201;27;20446;-79
2022/08/13 11:15:39;;;;;;;21.30;12.37;;;;;;;-143.84;48.20;44915.78;5132241;27;20449;-79
2022/08/13 11:18:09;;;;;;;20.27;13.30;;;;;;;-143.84;51.44;44892.94;5122589;27;20447;-79
2022/08/13 11:21:02;;;;;;;19.43;12.17;;;;;;;-143.84;52.24;44900.53;5118406;27;20805;-79
2022/08/13 11:23:25;;;;;;;21.23;12.57;;;;;;;-143.84;51.96;44911.97;5120909;27;20455;-79
2022/08/13 11:25:52;;;;;;;17.73;13.40;;;;;;;-143.84;53.58;44898.66;5117609;27;20482;-79
2022/08/13 11:28:19;;;;;;;14.70;13.00;;;;;;;-143.84;53.28;44898.66;5142910;27;20521;-78
2022/08/13 11:30:48;;;;;;;18.23;12.50;;;;;;;-143.84;52.20;44946.25;5128807;27;20459;-78
2022/08/13 11:33:17;;;;;;;18.03;12.47;;;;;;;-143.84;54.35;44910.06;5136573;27;20536;-78